sensor_id;sensor_type;location;lat;lon;timestamp;temperature;humidity
83553;DHT22;73510;50.866;5.420;2024-02-21T00:02:08;10.60;67.70
83553;DHT22;73510;50.866;5.420;2024-02-21T00:04:34;10.60;67.60
83553;DHT22;73510;50.866;5.420;2024-02-21T00:07:02;10.60;67.90
83553;DHT22;73510;50.866;5.420;2024-02-21T00:09:27;10.60;68.00
83553;DHT22;73510;50.866;5.420;2024-02-21T00:11:53;10.60;68.10
83553;DHT22;73510;50.866;5.420;2024-02-21T00:14:19;10.60;68.00
83553;DHT22;73510;50.866;5.420;2024-02-21T00:16:45;10.60;68.00
83553;DHT22;73510;50.866;5.420;2024-02-21T00:19:10;10.50;68.00
83553;DHT22;73510;50.866;5.420;2024-02-21T00:21:36;10.60;67.80
83553;DHT22;73510;50.866;5.420;2024-02-21T00:24:02;10.60;67.80
83553;DHT22;73510;50.866;5.420;2024-02-21T00:26:28;10.60;68.10
83553;DHT22;73510;50.866;5.420;2024-02-21T00:28:54;10.60;68.00
83553;DHT22;73510;50.866;5.420;2024-02-21T00:31:19;10.60;68.00
83553;DHT22;73510;50.866;5.420;2024-02-21T00:33:45;10.60;68.00
83553;DHT22;73510;50.866;5.420;2024-02-21T00:36:11;10.60;68.00
83553;DHT22;73510;50.866;5.420;2024-02-21T00:38:36;10.60;68.00
83553;DHT22;73510;50.866;5.420;2024-02-21T00:41:03;10.60;68.10
83553;DHT22;73510;50.866;5.420;2024-02-21T00:43:28;10.60;68.00
83553;DHT22;73510;50.866;5.420;2024-02-21T00:45:54;10.50;68.00
83553;DHT22;73510;50.866;5.420;2024-02-21T00:48:19;10.50;68.00
83553;DHT22;73510;50.866;5.420;2024-02-21T00:50:45;10.60;68.20
83553;DHT22;73510;50.866;5.420;2024-02-21T00:53:11;10.60;67.90
83553;DHT22;73510;50.866;5.420;2024-02-21T00:55:36;10.60;67.80
83553;DHT22;73510;50.866;5.420;2024-02-21T00:58:02;10.60;67.70
83553;DHT22;73510;50.866;5.420;2024-02-21T01:00:28;10.60;67.70
83553;DHT22;73510;50.866;5.420;2024-02-21T01:02:54;10.60;67.70
83553;DHT22;73510;50.866;5.420;2024-02-21T01:05:20;10.60;67.80
83553;DHT22;73510;50.866;5.420;2024-02-21T01:07:45;10.60;68.00
83553;DHT22;73510;50.866;5.420;2024-02-21T01:10:11;10.60;67.90
83553;DHT22;73510;50.866;5.420;2024-02-21T01:12:37;10.60;67.90
83553;DHT22;73510;50.866;5.420;2024-02-21T01:15:03;10.60;68.00
83553;DHT22;73510;50.866;5.420;2024-02-21T01:17:29;10.60;67.90
83553;DHT22;73510;50.866;5.420;2024-02-21T01:19:54;10.50;68.20
83553;DHT22;73510;50.866;5.420;2024-02-21T01:22:20;10.50;68.00
83553;DHT22;73510;50.866;5.420;2024-02-21T01:24:46;10.50;67.90
83553;DHT22;73510;50.866;5.420;2024-02-21T01:27:12;10.50;67.90
83553;DHT22;73510;50.866;5.420;2024-02-21T01:29:37;10.50;68.10
83553;DHT22;73510;50.866;5.420;2024-02-21T01:32:03;10.50;68.00
83553;DHT22;73510;50.866;5.420;2024-02-21T01:34:29;10.50;68.00
83553;DHT22;73510;50.866;5.420;2024-02-21T01:36:54;10.50;68.10
83553;DHT22;73510;50.866;5.420;2024-02-21T01:39:20;10.50;68.30
83553;DHT22;73510;50.866;5.420;2024-02-21T01:41:46;10.50;68.10
83553;DHT22;73510;50.866;5.420;2024-02-21T01:44:12;10.50;68.00
83553;DHT22;73510;50.866;5.420;2024-02-21T01:46:38;10.50;67.90
83553;DHT22;73510;50.866;5.420;2024-02-21T01:49:04;10.50;68.10
83553;DHT22;73510;50.866;5.420;2024-02-21T01:51:30;10.50;68.20
83553;DHT22;73510;50.866;5.420;2024-02-21T01:53:57;10.50;68.00
83553;DHT22;73510;50.866;5.420;2024-02-21T01:56:23;10.50;68.10
83553;DHT22;73510;50.866;5.420;2024-02-21T01:58:50;10.50;68.20
83553;DHT22;73510;50.866;5.420;2024-02-21T02:01:17;10.50;68.10
83553;DHT22;73510;50.866;5.420;2024-02-21T02:03:45;10.40;68.40
83553;DHT22;73510;50.866;5.420;2024-02-21T02:06:11;10.40;68.30
83553;DHT22;73510;50.866;5.420;2024-02-21T02:08:36;10.40;68.30
83553;DHT22;73510;50.866;5.420;2024-02-21T02:11:03;10.40;68.40
83553;DHT22;73510;50.866;5.420;2024-02-21T02:13:28;10.40;68.40
83553;DHT22;73510;50.866;5.420;2024-02-21T02:15:54;10.40;68.30
83553;DHT22;73510;50.866;5.420;2024-02-21T02:18:20;10.40;68.20
83553;DHT22;73510;50.866;5.420;2024-02-21T02:20:46;10.30;68.20
83553;DHT22;73510;50.866;5.420;2024-02-21T02:23:25;10.30;68.20
83553;DHT22;73510;50.866;5.420;2024-02-21T02:25:51;10.20;68.40
83553;DHT22;73510;50.866;5.420;2024-02-21T02:28:20;10.30;68.40
83553;DHT22;73510;50.866;5.420;2024-02-21T02:30:46;10.30;68.20
83553;DHT22;73510;50.866;5.420;2024-02-21T02:33:12;10.30;68.20
83553;DHT22;73510;50.866;5.420;2024-02-21T02:35:38;10.20;68.40
83553;DHT22;73510;50.866;5.420;2024-02-21T02:38:04;10.20;68.50
83553;DHT22;73510;50.866;5.420;2024-02-21T02:40:31;10.30;68.40
83553;DHT22;73510;50.866;5.420;2024-02-21T02:42:56;10.30;68.40
83553;DHT22;73510;50.866;5.420;2024-02-21T02:45:23;10.20;68.30
83553;DHT22;73510;50.866;5.420;2024-02-21T02:47:56;10.30;68.30
83553;DHT22;73510;50.866;5.420;2024-02-21T02:50:25;10.20;68.30
83553;DHT22;73510;50.866;5.420;2024-02-21T02:52:51;10.20;68.50
83553;DHT22;73510;50.866;5.420;2024-02-21T02:55:17;10.30;68.30
83553;DHT22;73510;50.866;5.420;2024-02-21T02:57:43;10.30;68.30
83553;DHT22;73510;50.866;5.420;2024-02-21T03:00:10;10.20;68.40
83553;DHT22;73510;50.866;5.420;2024-02-21T03:02:38;10.20;68.40
83553;DHT22;73510;50.866;5.420;2024-02-21T03:05:13;10.20;68.30
83553;DHT22;73510;50.866;5.420;2024-02-21T03:07:43;10.20;68.30
83553;DHT22;73510;50.866;5.420;2024-02-21T03:10:10;10.20;68.20
83553;DHT22;73510;50.866;5.420;2024-02-21T03:12:35;10.20;68.40
83553;DHT22;73510;50.866;5.420;2024-02-21T03:15:01;10.20;68.50
83553;DHT22;73510;50.866;5.420;2024-02-21T03:17:27;10.20;68.30
83553;DHT22;73510;50.866;5.420;2024-02-21T03:19:53;10.20;68.50
83553;DHT22;73510;50.866;5.420;2024-02-21T03:22:21;10.20;68.30
83553;DHT22;73510;50.866;5.420;2024-02-21T03:24:47;10.20;68.50
83553;DHT22;73510;50.866;5.420;2024-02-21T03:27:13;10.20;68.10
83553;DHT22;73510;50.866;5.420;2024-02-21T03:29:39;10.20;68.50
83553;DHT22;73510;50.866;5.420;2024-02-21T03:32:05;10.20;68.40
83553;DHT22;73510;50.866;5.420;2024-02-21T03:34:30;10.20;68.10
83553;DHT22;73510;50.866;5.420;2024-02-21T03:36:56;10.20;68.00
83553;DHT22;73510;50.866;5.420;2024-02-21T03:39:22;10.20;68.10
83553;DHT22;73510;50.866;5.420;2024-02-21T03:41:48;10.20;68.00
83553;DHT22;73510;50.866;5.420;2024-02-21T03:44:14;10.20;68.00
83553;DHT22;73510;50.866;5.420;2024-02-21T03:46:40;10.20;68.00
83553;DHT22;73510;50.866;5.420;2024-02-21T03:49:06;10.20;67.90
83553;DHT22;73510;50.866;5.420;2024-02-21T03:51:32;10.20;67.90
83553;DHT22;73510;50.866;5.420;2024-02-21T03:53:58;10.20;68.20
83553;DHT22;73510;50.866;5.420;2024-02-21T03:56:23;10.20;68.00
83553;DHT22;73510;50.866;5.420;2024-02-21T03:58:50;10.20;68.10
83553;DHT22;73510;50.866;5.420;2024-02-21T04:01:16;10.10;68.10
83553;DHT22;73510;50.866;5.420;2024-02-21T04:03:43;10.20;68.00
83553;DHT22;73510;50.866;5.420;2024-02-21T04:06:09;10.20;67.90
83553;DHT22;73510;50.866;5.420;2024-02-21T04:08:35;10.10;68.00
83553;DHT22;73510;50.866;5.420;2024-02-21T04:11:00;10.20;68.00
83553;DHT22;73510;50.866;5.420;2024-02-21T04:13:26;10.10;68.00
83553;DHT22;73510;50.866;5.420;2024-02-21T04:15:52;10.10;68.00
83553;DHT22;73510;50.866;5.420;2024-02-21T04:18:17;10.10;68.00
83553;DHT22;73510;50.866;5.420;2024-02-21T04:20:43;10.10;68.30
83553;DHT22;73510;50.866;5.420;2024-02-21T04:23:10;10.10;68.00
83553;DHT22;73510;50.866;5.420;2024-02-21T04:25:36;10.10;67.90
83553;DHT22;73510;50.866;5.420;2024-02-21T04:28:01;10.10;68.20
83553;DHT22;73510;50.866;5.420;2024-02-21T04:30:28;10.10;68.10
83553;DHT22;73510;50.866;5.420;2024-02-21T04:32:53;10.10;68.00
83553;DHT22;73510;50.866;5.420;2024-02-21T04:35:19;10.10;68.00
83553;DHT22;73510;50.866;5.420;2024-02-21T04:37:45;10.10;67.90
83553;DHT22;73510;50.866;5.420;2024-02-21T04:40:11;10.10;68.00
83553;DHT22;73510;50.866;5.420;2024-02-21T04:42:37;10.10;68.20
83553;DHT22;73510;50.866;5.420;2024-02-21T04:45:03;10.10;68.20
83553;DHT22;73510;50.866;5.420;2024-02-21T04:47:29;10.10;68.10
83553;DHT22;73510;50.866;5.420;2024-02-21T04:49:55;10.10;68.00
83553;DHT22;73510;50.866;5.420;2024-02-21T04:52:20;10.10;68.10
83553;DHT22;73510;50.866;5.420;2024-02-21T04:54:47;10.10;68.00
83553;DHT22;73510;50.866;5.420;2024-02-21T04:57:12;10.10;68.30
83553;DHT22;73510;50.866;5.420;2024-02-21T04:59:45;10.10;68.20
83553;DHT22;73510;50.866;5.420;2024-02-21T05:02:11;10.10;68.20
83553;DHT22;73510;50.866;5.420;2024-02-21T05:04:37;10.10;68.20
83553;DHT22;73510;50.866;5.420;2024-02-21T05:07:04;10.10;68.20
83553;DHT22;73510;50.866;5.420;2024-02-21T05:09:30;10.10;68.20
83553;DHT22;73510;50.866;5.420;2024-02-21T05:11:56;10.10;68.20
83553;DHT22;73510;50.866;5.420;2024-02-21T05:14:24;10.10;68.20
83553;DHT22;73510;50.866;5.420;2024-02-21T05:16:50;10.10;68.20
83553;DHT22;73510;50.866;5.420;2024-02-21T05:19:15;10.10;68.20
83553;DHT22;73510;50.866;5.420;2024-02-21T05:21:41;10.10;68.30
83553;DHT22;73510;50.866;5.420;2024-02-21T05:24:07;10.10;68.50
83553;DHT22;73510;50.866;5.420;2024-02-21T05:26:32;10.00;68.50
83553;DHT22;73510;50.866;5.420;2024-02-21T05:28:58;10.00;68.70
83553;DHT22;73510;50.866;5.420;2024-02-21T05:31:25;10.00;68.60
83553;DHT22;73510;50.866;5.420;2024-02-21T05:33:51;10.00;68.70
83553;DHT22;73510;50.866;5.420;2024-02-21T05:36:17;10.00;68.70
83553;DHT22;73510;50.866;5.420;2024-02-21T05:38:42;10.00;68.60
83553;DHT22;73510;50.866;5.420;2024-02-21T05:41:08;10.00;68.80
83553;DHT22;73510;50.866;5.420;2024-02-21T05:43:34;10.00;68.80
83553;DHT22;73510;50.866;5.420;2024-02-21T05:46:00;10.00;69.00
83553;DHT22;73510;50.866;5.420;2024-02-21T05:48:25;10.00;69.20
83553;DHT22;73510;50.866;5.420;2024-02-21T05:50:51;10.00;69.30
83553;DHT22;73510;50.866;5.420;2024-02-21T05:53:17;10.10;69.20
83553;DHT22;73510;50.866;5.420;2024-02-21T05:55:42;10.10;69.40
83553;DHT22;73510;50.866;5.420;2024-02-21T05:58:08;10.10;69.20
83553;DHT22;73510;50.866;5.420;2024-02-21T06:00:39;10.00;69.10
83553;DHT22;73510;50.866;5.420;2024-02-21T06:03:05;10.00;69.40
83553;DHT22;73510;50.866;5.420;2024-02-21T06:05:35;10.10;69.10
83553;DHT22;73510;50.866;5.420;2024-02-21T06:08:01;10.00;69.30
83553;DHT22;73510;50.866;5.420;2024-02-21T06:10:26;10.00;69.30
83553;DHT22;73510;50.866;5.420;2024-02-21T06:12:52;10.00;69.10
83553;DHT22;73510;50.866;5.420;2024-02-21T06:15:18;10.00;69.00
83553;DHT22;73510;50.866;5.420;2024-02-21T06:17:43;10.00;68.80
83553;DHT22;73510;50.866;5.420;2024-02-21T06:20:09;10.00;68.60
83553;DHT22;73510;50.866;5.420;2024-02-21T06:22:35;10.00;68.40
83553;DHT22;73510;50.866;5.420;2024-02-21T06:25:01;10.00;68.50
83553;DHT22;73510;50.866;5.420;2024-02-21T06:27:27;10.00;68.50
83553;DHT22;73510;50.866;5.420;2024-02-21T06:29:53;10.00;68.60
83553;DHT22;73510;50.866;5.420;2024-02-21T06:32:18;10.00;68.60
83553;DHT22;73510;50.866;5.420;2024-02-21T06:34:44;10.00;68.50
83553;DHT22;73510;50.866;5.420;2024-02-21T06:37:10;10.00;68.30
83553;DHT22;73510;50.866;5.420;2024-02-21T06:39:35;10.00;68.40
83553;DHT22;73510;50.866;5.420;2024-02-21T06:42:03;10.00;68.30
83553;DHT22;73510;50.866;5.420;2024-02-21T06:44:29;10.00;68.20
83553;DHT22;73510;50.866;5.420;2024-02-21T06:46:55;10.00;68.70
83553;DHT22;73510;50.866;5.420;2024-02-21T06:49:21;10.00;68.90
83553;DHT22;73510;50.866;5.420;2024-02-21T06:51:47;9.90;69.00
83553;DHT22;73510;50.866;5.420;2024-02-21T06:54:12;10.00;69.00
83553;DHT22;73510;50.866;5.420;2024-02-21T06:56:40;9.90;68.70
83553;DHT22;73510;50.866;5.420;2024-02-21T06:59:05;9.90;68.90
83553;DHT22;73510;50.866;5.420;2024-02-21T07:01:31;9.90;69.10
83553;DHT22;73510;50.866;5.420;2024-02-21T07:03:58;9.80;69.30
83553;DHT22;73510;50.866;5.420;2024-02-21T07:06:23;9.80;69.20
83553;DHT22;73510;50.866;5.420;2024-02-21T07:08:49;9.80;69.30
83553;DHT22;73510;50.866;5.420;2024-02-21T07:11:15;9.80;69.40
83553;DHT22;73510;50.866;5.420;2024-02-21T07:13:40;9.80;69.20
83553;DHT22;73510;50.866;5.420;2024-02-21T07:16:07;9.80;69.10
83553;DHT22;73510;50.866;5.420;2024-02-21T07:18:33;9.90;69.10
83553;DHT22;73510;50.866;5.420;2024-02-21T07:20:59;9.80;69.00
83553;DHT22;73510;50.866;5.420;2024-02-21T07:23:25;9.90;69.10
83553;DHT22;73510;50.866;5.420;2024-02-21T07:25:51;9.90;69.00
83553;DHT22;73510;50.866;5.420;2024-02-21T07:28:16;9.90;69.00
83553;DHT22;73510;50.866;5.420;2024-02-21T07:30:42;9.90;68.90
83553;DHT22;73510;50.866;5.420;2024-02-21T07:33:08;10.00;68.90
83553;DHT22;73510;50.866;5.420;2024-02-21T07:35:34;10.00;69.00
83553;DHT22;73510;50.866;5.420;2024-02-21T07:38:03;10.00;68.70
83553;DHT22;73510;50.866;5.420;2024-02-21T07:40:29;10.00;68.40
83553;DHT22;73510;50.866;5.420;2024-02-21T07:42:55;10.00;68.70
83553;DHT22;73510;50.866;5.420;2024-02-21T07:45:21;10.00;68.40
83553;DHT22;73510;50.866;5.420;2024-02-21T07:47:49;10.00;68.80
83553;DHT22;73510;50.866;5.420;2024-02-21T07:50:15;10.00;68.60
83553;DHT22;73510;50.866;5.420;2024-02-21T07:52:40;10.10;68.30
83553;DHT22;73510;50.866;5.420;2024-02-21T07:55:06;10.10;68.60
83553;DHT22;73510;50.866;5.420;2024-02-21T07:57:32;10.00;68.30
83553;DHT22;73510;50.866;5.420;2024-02-21T07:59:58;10.10;68.20
83553;DHT22;73510;50.866;5.420;2024-02-21T08:02:24;10.10;67.80
83553;DHT22;73510;50.866;5.420;2024-02-21T08:04:49;10.10;67.70
83553;DHT22;73510;50.866;5.420;2024-02-21T08:07:15;10.10;67.50
83553;DHT22;73510;50.866;5.420;2024-02-21T08:09:41;10.10;67.40
83553;DHT22;73510;50.866;5.420;2024-02-21T08:12:06;10.10;67.40
83553;DHT22;73510;50.866;5.420;2024-02-21T08:14:32;10.20;67.20
83553;DHT22;73510;50.866;5.420;2024-02-21T08:16:58;10.20;67.00
83553;DHT22;73510;50.866;5.420;2024-02-21T08:19:24;10.20;67.10
83553;DHT22;73510;50.866;5.420;2024-02-21T08:21:50;10.20;66.70
83553;DHT22;73510;50.866;5.420;2024-02-21T08:24:17;10.30;66.60
83553;DHT22;73510;50.866;5.420;2024-02-21T08:26:43;10.30;66.50
83553;DHT22;73510;50.866;5.420;2024-02-21T08:29:10;10.30;66.20
83553;DHT22;73510;50.866;5.420;2024-02-21T08:31:37;10.30;66.20
83553;DHT22;73510;50.866;5.420;2024-02-21T08:34:03;10.30;65.80
83553;DHT22;73510;50.866;5.420;2024-02-21T08:36:36;10.40;65.80
83553;DHT22;73510;50.866;5.420;2024-02-21T08:39:03;10.40;65.80
83553;DHT22;73510;50.866;5.420;2024-02-21T08:41:33;10.50;66.00
83553;DHT22;73510;50.866;5.420;2024-02-21T08:43:59;10.50;65.80
83553;DHT22;73510;50.866;5.420;2024-02-21T08:46:25;10.60;65.80
83553;DHT22;73510;50.866;5.420;2024-02-21T08:48:51;10.60;65.20
83553;DHT22;73510;50.866;5.420;2024-02-21T08:51:17;10.60;65.40
83553;DHT22;73510;50.866;5.420;2024-02-21T08:53:48;10.70;65.20
83553;DHT22;73510;50.866;5.420;2024-02-21T08:56:14;10.70;65.20
83553;DHT22;73510;50.866;5.420;2024-02-21T08:58:40;10.70;64.80
83553;DHT22;73510;50.866;5.420;2024-02-21T09:01:07;10.70;64.70
83553;DHT22;73510;50.866;5.420;2024-02-21T09:03:36;10.70;64.70
83553;DHT22;73510;50.866;5.420;2024-02-21T09:06:04;10.80;64.80
83553;DHT22;73510;50.866;5.420;2024-02-21T09:08:29;10.80;64.80
83553;DHT22;73510;50.866;5.420;2024-02-21T09:10:55;10.80;65.10
83553;DHT22;73510;50.866;5.420;2024-02-21T09:13:21;10.80;64.70
83553;DHT22;73510;50.866;5.420;2024-02-21T09:15:47;10.90;64.80
83553;DHT22;73510;50.866;5.420;2024-02-21T09:18:13;10.90;64.70
83553;DHT22;73510;50.866;5.420;2024-02-21T09:20:39;10.90;64.90
83553;DHT22;73510;50.866;5.420;2024-02-21T09:23:05;10.90;64.50
83553;DHT22;73510;50.866;5.420;2024-02-21T09:25:31;11.00;64.20
83553;DHT22;73510;50.866;5.420;2024-02-21T09:27:57;11.00;64.20
83553;DHT22;73510;50.866;5.420;2024-02-21T09:30:24;11.00;64.50
83553;DHT22;73510;50.866;5.420;2024-02-21T09:32:50;11.00;64.70
83553;DHT22;73510;50.866;5.420;2024-02-21T09:35:15;11.00;64.70
83553;DHT22;73510;50.866;5.420;2024-02-21T09:37:41;11.10;64.30
83553;DHT22;73510;50.866;5.420;2024-02-21T09:40:07;11.10;64.60
83553;DHT22;73510;50.866;5.420;2024-02-21T09:42:41;11.10;64.40
83553;DHT22;73510;50.866;5.420;2024-02-21T09:45:25;11.20;64.70
83553;DHT22;73510;50.866;5.420;2024-02-21T09:48:22;11.30;64.90
83553;DHT22;73510;50.866;5.420;2024-02-21T09:50:51;11.40;64.20
83553;DHT22;73510;50.866;5.420;2024-02-21T09:53:18;11.40;64.00
83553;DHT22;73510;50.866;5.420;2024-02-21T09:55:45;11.50;63.50
83553;DHT22;73510;50.866;5.420;2024-02-21T09:58:12;11.50;63.50
83553;DHT22;73510;50.866;5.420;2024-02-21T10:00:39;11.50;63.50
83553;DHT22;73510;50.866;5.420;2024-02-21T10:03:04;11.60;63.50
83553;DHT22;73510;50.866;5.420;2024-02-21T10:05:34;11.70;63.20
83553;DHT22;73510;50.866;5.420;2024-02-21T10:08:01;11.70;63.90
83553;DHT22;73510;50.866;5.420;2024-02-21T10:10:27;11.90;63.30
83553;DHT22;73510;50.866;5.420;2024-02-21T10:12:53;11.90;62.70
83553;DHT22;73510;50.866;5.420;2024-02-21T10:15:24;11.90;63.30
83553;DHT22;73510;50.866;5.420;2024-02-21T10:17:58;12.00;62.60
83553;DHT22;73510;50.866;5.420;2024-02-21T10:20:24;12.00;62.60
83553;DHT22;73510;50.866;5.420;2024-02-21T10:23:06;12.10;62.60
83553;DHT22;73510;50.866;5.420;2024-02-21T10:25:35;12.20;62.50
83553;DHT22;73510;50.866;5.420;2024-02-21T10:28:04;12.20;62.40
83553;DHT22;73510;50.866;5.420;2024-02-21T10:30:30;12.30;62.50
83553;DHT22;73510;50.866;5.420;2024-02-21T10:32:56;12.40;62.50
83553;DHT22;73510;50.866;5.420;2024-02-21T10:35:31;12.50;62.40
83553;DHT22;73510;50.866;5.420;2024-02-21T10:37:57;12.50;62.40
83553;DHT22;73510;50.866;5.420;2024-02-21T10:40:24;12.50;62.20
83553;DHT22;73510;50.866;5.420;2024-02-21T10:42:59;12.50;62.40
83553;DHT22;73510;50.866;5.420;2024-02-21T10:45:35;12.50;61.80
83553;DHT22;73510;50.866;5.420;2024-02-21T10:48:12;12.50;62.50
83553;DHT22;73510;50.866;5.420;2024-02-21T10:50:56;12.60;61.70
83553;DHT22;73510;50.866;5.420;2024-02-21T10:56:15;12.60;62.00
83553;DHT22;73510;50.866;5.420;2024-02-21T10:58:42;12.60;62.50
83553;DHT22;73510;50.866;5.420;2024-02-21T11:01:08;12.70;62.30
83553;DHT22;73510;50.866;5.420;2024-02-21T11:03:35;12.80;61.70
83553;DHT22;73510;50.866;5.420;2024-02-21T11:06:03;12.80;61.50
83553;DHT22;73510;50.866;5.420;2024-02-21T11:08:30;12.90;62.60
83553;DHT22;73510;50.866;5.420;2024-02-21T11:10:59;12.90;61.90
83553;DHT22;73510;50.866;5.420;2024-02-21T11:13:32;13.00;62.60
83553;DHT22;73510;50.866;5.420;2024-02-21T11:16:11;13.00;60.90
83553;DHT22;73510;50.866;5.420;2024-02-21T11:18:38;13.10;61.40
83553;DHT22;73510;50.866;5.420;2024-02-21T11:21:04;13.00;60.80
83553;DHT22;73510;50.866;5.420;2024-02-21T11:23:31;13.00;61.10
83553;DHT22;73510;50.866;5.420;2024-02-21T11:26:09;13.10;60.90
83553;DHT22;73510;50.866;5.420;2024-02-21T11:28:35;13.10;60.90
83553;DHT22;73510;50.866;5.420;2024-02-21T11:31:08;13.10;60.30
83553;DHT22;73510;50.866;5.420;2024-02-21T11:33:34;13.10;61.30
83553;DHT22;73510;50.866;5.420;2024-02-21T11:36:00;13.20;61.00
83553;DHT22;73510;50.866;5.420;2024-02-21T11:38:26;13.30;61.10
83553;DHT22;73510;50.866;5.420;2024-02-21T11:40:51;13.30;60.80
83553;DHT22;73510;50.866;5.420;2024-02-21T11:43:18;13.40;60.90
83553;DHT22;73510;50.866;5.420;2024-02-21T11:45:43;13.40;60.00
83553;DHT22;73510;50.866;5.420;2024-02-21T11:48:09;13.30;60.10
83553;DHT22;73510;50.866;5.420;2024-02-21T11:50:35;13.40;60.20
83553;DHT22;73510;50.866;5.420;2024-02-21T11:53:05;13.40;60.30
83553;DHT22;73510;50.866;5.420;2024-02-21T11:55:31;13.30;59.80
83553;DHT22;73510;50.866;5.420;2024-02-21T11:57:56;13.30;60.10
83553;DHT22;73510;50.866;5.420;2024-02-21T12:00:23;13.30;59.70
83553;DHT22;73510;50.866;5.420;2024-02-21T12:02:52;13.40;59.70
83553;DHT22;73510;50.866;5.420;2024-02-21T12:05:21;13.50;59.50
83553;DHT22;73510;50.866;5.420;2024-02-21T12:07:47;13.50;59.90
83553;DHT22;73510;50.866;5.420;2024-02-21T12:10:13;13.60;59.90
83553;DHT22;73510;50.866;5.420;2024-02-21T12:12:39;13.60;60.10
83553;DHT22;73510;50.866;5.420;2024-02-21T12:15:06;13.70;60.00
83553;DHT22;73510;50.866;5.420;2024-02-21T12:17:33;13.70;58.70
83553;DHT22;73510;50.866;5.420;2024-02-21T12:20:00;13.70;59.50
83553;DHT22;73510;50.866;5.420;2024-02-21T12:22:25;13.70;59.00
83553;DHT22;73510;50.866;5.420;2024-02-21T12:24:52;13.70;59.40
83553;DHT22;73510;50.866;5.420;2024-02-21T12:27:18;13.80;59.60
83553;DHT22;73510;50.866;5.420;2024-02-21T12:29:44;13.80;58.80
83553;DHT22;73510;50.866;5.420;2024-02-21T12:32:09;13.80;59.00
83553;DHT22;73510;50.866;5.420;2024-02-21T12:34:35;13.70;59.20
83553;DHT22;73510;50.866;5.420;2024-02-21T12:37:02;13.70;59.30
83553;DHT22;73510;50.866;5.420;2024-02-21T12:39:29;13.70;59.20
83553;DHT22;73510;50.866;5.420;2024-02-21T12:41:55;13.60;59.80
83553;DHT22;73510;50.866;5.420;2024-02-21T12:44:23;13.60;59.80
83553;DHT22;73510;50.866;5.420;2024-02-21T12:46:49;13.50;59.50
83553;DHT22;73510;50.866;5.420;2024-02-21T12:49:18;13.50;59.60
83553;DHT22;73510;50.866;5.420;2024-02-21T12:51:44;13.40;59.70
83553;DHT22;73510;50.866;5.420;2024-02-21T12:54:12;13.40;60.00
83553;DHT22;73510;50.866;5.420;2024-02-21T12:56:38;13.30;60.40
83553;DHT22;73510;50.866;5.420;2024-02-21T12:59:05;13.30;60.50
83553;DHT22;73510;50.866;5.420;2024-02-21T13:01:30;13.30;60.10
83553;DHT22;73510;50.866;5.420;2024-02-21T13:03:57;13.30;60.20
83553;DHT22;73510;50.866;5.420;2024-02-21T13:06:26;13.30;60.50
83553;DHT22;73510;50.866;5.420;2024-02-21T13:08:51;13.30;60.20
83553;DHT22;73510;50.866;5.420;2024-02-21T13:11:17;13.20;60.40
83553;DHT22;73510;50.866;5.420;2024-02-21T13:13:43;13.20;60.90
83553;DHT22;73510;50.866;5.420;2024-02-21T13:16:08;13.20;62.10
83553;DHT22;73510;50.866;5.420;2024-02-21T13:18:35;13.30;61.10
83553;DHT22;73510;50.866;5.420;2024-02-21T13:21:04;13.30;60.40
83553;DHT22;73510;50.866;5.420;2024-02-21T13:23:30;13.30;60.50
83553;DHT22;73510;50.866;5.420;2024-02-21T13:25:55;13.30;60.30
83553;DHT22;73510;50.866;5.420;2024-02-21T13:28:21;13.30;60.60
83553;DHT22;73510;50.866;5.420;2024-02-21T13:30:47;13.30;61.20
83553;DHT22;73510;50.866;5.420;2024-02-21T13:33:13;13.30;59.80
83553;DHT22;73510;50.866;5.420;2024-02-21T13:35:39;13.30;60.30
83553;DHT22;73510;50.866;5.420;2024-02-21T13:38:04;13.30;59.40
83553;DHT22;73510;50.866;5.420;2024-02-21T13:40:30;13.30;59.70
83553;DHT22;73510;50.866;5.420;2024-02-21T13:42:56;13.30;60.00
83553;DHT22;73510;50.866;5.420;2024-02-21T13:45:22;13.30;59.90
83553;DHT22;73510;50.866;5.420;2024-02-21T13:47:48;13.30;60.10
83553;DHT22;73510;50.866;5.420;2024-02-21T13:50:14;13.40;60.10
83553;DHT22;73510;50.866;5.420;2024-02-21T13:52:42;13.40;60.10
83553;DHT22;73510;50.866;5.420;2024-02-21T13:55:08;13.40;60.20
83553;DHT22;73510;50.866;5.420;2024-02-21T13:57:37;13.40;59.70
83553;DHT22;73510;50.866;5.420;2024-02-21T14:00:03;13.30;59.90
83553;DHT22;73510;50.866;5.420;2024-02-21T14:02:30;13.30;60.00
83553;DHT22;73510;50.866;5.420;2024-02-21T14:04:56;13.30;60.70
83553;DHT22;73510;50.866;5.420;2024-02-21T14:07:22;13.30;60.40
83553;DHT22;73510;50.866;5.420;2024-02-21T14:09:48;13.30;60.50
83553;DHT22;73510;50.866;5.420;2024-02-21T14:12:14;13.30;60.00
83553;DHT22;73510;50.866;5.420;2024-02-21T14:14:43;13.20;60.20
83553;DHT22;73510;50.866;5.420;2024-02-21T14:17:08;13.10;59.90
83553;DHT22;73510;50.866;5.420;2024-02-21T14:19:34;13.20;60.00
83553;DHT22;73510;50.866;5.420;2024-02-21T14:22:00;13.10;60.00
83553;DHT22;73510;50.866;5.420;2024-02-21T14:24:27;13.10;60.90
83553;DHT22;73510;50.866;5.420;2024-02-21T14:26:53;13.10;60.00
83553;DHT22;73510;50.866;5.420;2024-02-21T14:29:20;13.10;60.50
83553;DHT22;73510;50.866;5.420;2024-02-21T14:31:46;13.00;60.40
83553;DHT22;73510;50.866;5.420;2024-02-21T14:34:12;13.00;60.50
83553;DHT22;73510;50.866;5.420;2024-02-21T14:36:37;12.90;60.10
83553;DHT22;73510;50.866;5.420;2024-02-21T14:39:03;12.90;59.90
83553;DHT22;73510;50.866;5.420;2024-02-21T14:41:30;12.90;60.20
83553;DHT22;73510;50.866;5.420;2024-02-21T14:43:56;12.80;60.30
83553;DHT22;73510;50.866;5.420;2024-02-21T14:46:25;12.70;59.80
83553;DHT22;73510;50.866;5.420;2024-02-21T14:48:57;12.70;60.10
83553;DHT22;73510;50.866;5.420;2024-02-21T14:51:22;12.70;60.00
83553;DHT22;73510;50.866;5.420;2024-02-21T14:53:48;12.60;59.80
83553;DHT22;73510;50.866;5.420;2024-02-21T14:56:14;12.60;60.50
83553;DHT22;73510;50.866;5.420;2024-02-21T14:58:41;12.50;60.00
83553;DHT22;73510;50.866;5.420;2024-02-21T15:01:07;12.50;60.90
83553;DHT22;73510;50.866;5.420;2024-02-21T15:03:34;12.50;60.50
83553;DHT22;73510;50.866;5.420;2024-02-21T15:06:00;12.50;61.30
83553;DHT22;73510;50.866;5.420;2024-02-21T15:08:27;12.40;61.30
83553;DHT22;73510;50.866;5.420;2024-02-21T15:10:54;12.30;61.90
83553;DHT22;73510;50.866;5.420;2024-02-21T15:13:20;12.30;61.80
83553;DHT22;73510;50.866;5.420;2024-02-21T15:15:46;12.30;61.80
83553;DHT22;73510;50.866;5.420;2024-02-21T15:18:13;12.20;61.50
83553;DHT22;73510;50.866;5.420;2024-02-21T15:20:40;12.20;62.00
83553;DHT22;73510;50.866;5.420;2024-02-21T15:23:06;12.20;62.80
83553;DHT22;73510;50.866;5.420;2024-02-21T15:25:32;12.20;62.10
83553;DHT22;73510;50.866;5.420;2024-02-21T15:27:59;12.10;62.20
83553;DHT22;73510;50.866;5.420;2024-02-21T15:30:25;12.10;63.20
83553;DHT22;73510;50.866;5.420;2024-02-21T15:32:52;12.00;62.60